Terminal Aerodrome Forecast
Issued by NWS

Home | Current Version | Previous Version | Text Only | Print | Product List | Glossary On
Versions: 1 2 3 4 5 6 7 8 9 10 11 12 13 14 15 16 17 18 19 20 21 22 23 24 25 26 27 28 29 30 31 32 33 34 35 36 37 38 39 40 41 42 43 44 45 46 47 48 49 50
000
FTUS45 KBOU 011727
TAFBJC
TAF
KBJC 011727Z 0118/0218 VRB03KT P6SM SCT015 BKN023
     FM020100 33005KT P6SM VCSH SCT012 BKN020
      TEMPO 0201/0205 3SM -SN BR OVC012
     FM020500 31005KT P6SM VCSH BKN015
     FM020900 28005KT P6SM SCT015 OVC030
     FM021200 VRB04KT 3SM BR SCT005 OVC015
      TEMPO 0212/0215 1/2SM FZFG BKN005=

USA.gov is the U.S. government's official web portal to all federal, state and local government web resources and services.